createdAt,value
2023-05-24T00:18:57.149Z,0.50
2023-05-24T00:19:51.948Z,0.50
2023-05-24T00:20:51.981Z,0.50
2023-05-24T00:21:51.924Z,0.50
2023-05-24T00:22:51.921Z,0.50
2023-05-24T00:23:52.179Z,0.50
2023-05-24T00:24:51.950Z,0.48
2023-05-24T00:25:51.994Z,0.49
2023-05-24T00:26:52.069Z,0.48
2023-05-24T00:27:52.123Z,0.49
2023-05-24T00:28:52.654Z,0.43
2023-05-24T00:29:52.633Z,0.42
2023-05-24T00:30:53.148Z,0.49
2023-05-24T00:31:52.341Z,0.50
2023-05-24T00:32:52.377Z,0.50
2023-05-24T00:33:52.324Z,0.50
2023-05-24T00:34:52.390Z,0.49
2023-05-24T00:35:52.421Z,0.51
2023-05-24T00:36:52.451Z,0.56
2023-05-24T00:37:52.463Z,0.58
2023-05-24T00:38:52.490Z,0.55
2023-05-24T00:39:52.509Z,0.51
2023-05-24T00:40:52.526Z,0.53
2023-05-24T00:41:52.536Z,0.51
2023-05-24T00:42:52.561Z,0.51
2023-05-24T00:43:52.590Z,0.50
2023-05-24T00:44:52.648Z,0.50
2023-05-24T00:45:52.703Z,0.53
2023-05-24T00:46:52.704Z,0.64
2023-05-24T00:47:52.790Z,0.78
2023-05-24T00:48:52.738Z,0.78
2023-05-24T00:49:52.790Z,0.87
2023-05-24T00:50:52.811Z,0.87
2023-05-24T00:51:52.801Z,0.88
2023-05-24T00:52:52.830Z,0.93
2023-05-24T00:53:52.851Z,0.87
2023-05-24T00:54:52.864Z,0.88
2023-05-24T00:55:52.862Z,0.80
2023-05-24T00:56:52.908Z,0.76
2023-05-24T00:57:52.905Z,0.81
2023-05-24T00:58:52.926Z,0.81
2023-05-24T00:59:52.981Z,0.76
2023-05-24T01:00:53.043Z,0.75
2023-05-24T01:01:53.188Z,0.75
2023-05-24T01:02:53.177Z,0.66
2023-05-24T01:03:53.186Z,0.56
2023-05-24T01:04:53.169Z,0.50
2023-05-24T01:05:53.197Z,0.48
2023-05-24T01:06:53.220Z,0.53
2023-05-24T01:07:53.229Z,0.69
2023-05-24T01:08:53.232Z,0.72
2023-05-24T01:09:53.257Z,0.56
2023-05-24T01:10:53.289Z,0.43
2023-05-24T01:11:53.312Z,0.34
2023-05-24T01:12:53.374Z,0.34
2023-05-24T01:13:53.419Z,0.34
2023-05-24T01:14:53.499Z,0.34
2023-05-24T01:15:53.531Z,0.34
2023-05-24T01:16:53.554Z,0.34
2023-05-24T01:17:53.636Z,0.34
2023-05-24T01:18:53.648Z,0.34
2023-05-24T01:19:53.737Z,0.34
2023-05-24T01:20:53.683Z,0.34
2023-05-24T01:21:53.732Z,0.36
2023-05-24T01:22:53.738Z,0.42
2023-05-24T01:23:53.746Z,0.49
2023-05-24T01:24:53.806Z,0.50
2023-05-24T01:25:54.175Z,0.43
2023-05-24T01:26:53.773Z,0.47
2023-05-24T01:27:53.799Z,0.50
2023-05-24T01:28:53.812Z,0.52
2023-05-24T01:29:53.837Z,0.51
2023-05-24T01:30:53.875Z,0.53
2023-05-24T01:31:53.937Z,0.56
2023-05-24T01:32:53.921Z,0.57
2023-05-24T01:33:53.878Z,0.47
2023-05-24T01:34:53.892Z,0.51
2023-05-24T01:35:53.909Z,0.51
2023-05-24T01:36:53.916Z,0.62
2023-05-24T01:37:53.952Z,0.69
2023-05-24T01:38:53.956Z,0.70
2023-05-24T01:39:53.959Z,0.67
2023-05-24T01:40:53.998Z,0.61
2023-05-24T01:41:53.995Z,0.55
2023-05-24T01:42:54.032Z,0.50
2023-05-24T01:43:54.022Z,0.50
2023-05-24T01:44:54.015Z,0.50
2023-05-24T01:45:54.040Z,0.50
2023-05-24T01:46:54.085Z,0.50
2023-05-24T01:47:54.130Z,0.50
2023-05-24T01:48:54.081Z,0.54
2023-05-24T01:49:54.109Z,0.55
2023-05-24T01:50:54.155Z,0.50
2023-05-24T01:51:54.185Z,0.50
2023-05-24T01:52:54.173Z,0.55
2023-05-24T01:53:54.221Z,0.58
2023-05-24T01:54:54.251Z,0.49
2023-05-24T01:55:54.288Z,0.52
2023-05-24T01:56:54.329Z,0.61
2023-05-24T01:57:54.253Z,0.59
2023-05-24T01:58:54.298Z,0.66
2023-05-24T01:59:54.347Z,0.68
2023-05-24T02:00:54.423Z,0.68
2023-05-24T02:01:54.432Z,0.80
2023-05-24T02:02:54.538Z,0.99
2023-05-24T02:03:54.455Z,0.91
2023-05-24T02:04:54.529Z,1.04
2023-05-24T02:05:54.505Z,1.33
2023-05-24T02:06:54.535Z,0.99
2023-05-24T02:07:54.554Z,1.00
2023-05-24T02:08:54.534Z,1.14
2023-05-24T02:09:54.571Z,1.51
2023-05-24T02:10:54.621Z,1.45
2023-05-24T02:11:54.616Z,1.41
2023-05-24T02:12:54.634Z,1.59
2023-05-24T02:13:54.642Z,1.44
2023-05-24T02:14:54.658Z,1.52
2023-05-24T02:15:54.691Z,1.54
2023-05-24T02:16:54.711Z,1.70
2023-05-24T02:17:54.787Z,1.45
2023-05-24T02:18:54.657Z,1.62
2023-05-24T02:19:54.709Z,1.58
2023-05-24T02:20:54.711Z,1.44
2023-05-24T02:21:54.725Z,1.59
2023-05-24T02:22:54.734Z,1.63
2023-05-24T02:23:54.725Z,1.44
2023-05-24T02:24:54.753Z,1.34
2023-05-24T02:25:54.741Z,1.15
2023-05-24T02:26:54.759Z,1.16
2023-05-24T02:27:54.800Z,1.28
2023-05-24T02:28:54.785Z,1.10
2023-05-24T02:29:54.789Z,0.89
2023-05-24T02:30:54.874Z,0.93
2023-05-24T02:31:54.892Z,1.01
2023-05-24T02:32:54.912Z,1.09
2023-05-24T02:33:54.891Z,1.18
2023-05-24T02:34:54.934Z,1.18
2023-05-24T02:35:54.934Z,1.11
2023-05-24T02:36:54.924Z,1.16
2023-05-24T02:37:54.961Z,1.34
2023-05-24T02:38:54.952Z,1.46
2023-05-24T02:39:54.961Z,1.57
2023-05-24T02:40:55.011Z,1.73
2023-05-24T02:41:55.015Z,2.30
2023-05-24T02:42:55.025Z,2.42
2023-05-24T02:43:55.058Z,2.70
2023-05-24T02:44:55.068Z,2.02
2023-05-24T02:45:55.108Z,2.04
2023-05-24T02:46:55.112Z,1.98
2023-05-24T02:47:55.152Z,2.47
2023-05-24T02:48:55.194Z,2.66
2023-05-24T02:49:55.231Z,2.60
2023-05-24T02:50:55.235Z,3.56
2023-05-24T02:51:55.263Z,3.29
2023-05-24T02:52:55.297Z,3.36
2023-05-24T02:53:55.327Z,3.51
2023-05-24T02:54:55.360Z,3.55
2023-05-24T02:55:55.406Z,3.81
2023-05-24T02:56:55.440Z,3.48
2023-05-24T02:57:55.512Z,3.23
2023-05-24T02:58:55.539Z,3.19
2023-05-24T02:59:55.579Z,3.15
2023-05-24T03:00:55.619Z,3.25
2023-05-24T03:01:55.706Z,2.85
2023-05-24T03:02:55.865Z,3.25
2023-05-24T03:03:55.773Z,3.03
2023-05-24T03:04:55.778Z,2.92
2023-05-24T03:05:55.809Z,3.20
2023-05-24T03:06:55.851Z,3.32
2023-05-24T03:07:55.847Z,3.60
2023-05-24T03:08:55.899Z,4.16
2023-05-24T03:09:55.906Z,4.17
2023-05-24T03:10:55.954Z,4.07
2023-05-24T03:11:55.975Z,4.93
2023-05-24T03:12:56.003Z,5.60
2023-05-24T03:13:56.028Z,6.27
2023-05-24T03:14:56.070Z,6.22
2023-05-24T03:15:56.110Z,6.15
2023-05-24T03:16:56.088Z,5.62
2023-05-24T03:17:56.136Z,4.30
2023-05-24T03:18:56.152Z,4.15
2023-05-24T03:19:56.171Z,3.81
2023-05-24T03:20:56.142Z,3.24
2023-05-24T03:21:56.159Z,2.87
2023-05-24T03:22:56.160Z,2.60
2023-05-24T03:23:56.228Z,1.86
2023-05-24T03:24:56.265Z,1.86
2023-05-24T03:25:56.285Z,2.52
2023-05-24T03:26:56.310Z,3.03
2023-05-24T03:27:56.322Z,3.21
2023-05-24T03:28:56.377Z,3.24
2023-05-24T03:29:56.417Z,3.18
2023-05-24T03:30:56.493Z,3.11
2023-05-24T03:31:56.527Z,3.38
2023-05-24T03:32:56.507Z,3.80
2023-05-24T03:33:56.488Z,4.51
2023-05-24T03:34:56.528Z,5.21
2023-05-24T03:35:56.580Z,5.44
2023-05-24T03:36:56.597Z,5.51
2023-05-24T03:37:56.621Z,5.17
2023-05-24T03:38:56.641Z,4.78
2023-05-24T03:39:56.704Z,5.04
2023-05-24T03:40:56.722Z,5.34
2023-05-24T03:41:56.744Z,5.32
2023-05-24T03:42:56.774Z,5.92
2023-05-24T03:43:56.827Z,5.67
2023-05-24T03:44:56.878Z,5.77
2023-05-24T03:45:56.891Z,5.09
2023-05-24T03:46:56.859Z,4.75
2023-05-24T03:47:56.881Z,5.16
2023-05-24T03:48:56.906Z,5.38
2023-05-24T03:49:56.941Z,5.34
2023-05-24T03:50:57.013Z,5.50
2023-05-24T03:51:57.029Z,5.30
2023-05-24T03:52:57.049Z,4.67
2023-05-24T03:53:57.121Z,4.79
2023-05-24T03:54:57.154Z,5.55
2023-05-24T03:55:57.180Z,5.48
2023-05-24T03:56:57.219Z,4.72
2023-05-24T03:57:57.242Z,4.92
2023-05-24T03:58:57.306Z,4.66
2023-05-24T03:59:57.307Z,4.69
2023-05-24T04:00:57.361Z,4.80
2023-05-24T04:01:57.419Z,5.17
2023-05-24T04:02:57.446Z,5.13
2023-05-24T04:03:57.425Z,5.49
2023-05-24T04:04:57.460Z,5.17
2023-05-24T04:05:57.497Z,4.33
2023-05-24T04:06:57.517Z,3.98
2023-05-24T04:07:57.535Z,3.97
2023-05-24T04:08:57.560Z,3.52
2023-05-24T04:09:57.611Z,3.29
2023-05-24T04:10:57.625Z,3.05
2023-05-24T04:11:57.654Z,2.72
2023-05-24T04:12:57.683Z,2.65
2023-05-24T04:13:57.791Z,2.70
2023-05-24T04:14:57.749Z,2.63
2023-05-24T04:15:57.783Z,2.60
2023-05-24T04:16:57.840Z,2.47
2023-05-24T04:17:57.942Z,2.52
2023-05-24T04:18:57.954Z,2.15
2023-05-24T04:19:57.933Z,1.86
2023-05-24T04:20:57.936Z,1.85
2023-05-24T04:21:58.017Z,1.96
2023-05-24T04:22:58.065Z,1.86
2023-05-24T04:23:58.074Z,2.03
2023-05-24T04:24:58.136Z,1.78
2023-05-24T04:25:58.133Z,1.96
2023-05-24T04:26:58.199Z,1.96
2023-05-24T04:27:58.201Z,2.01
2023-05-24T04:28:58.321Z,2.06
2023-05-24T04:29:58.232Z,1.92
2023-05-24T04:30:58.316Z,2.06
2023-05-24T04:31:58.279Z,2.25
2023-05-24T04:32:58.386Z,2.10
2023-05-24T04:33:58.329Z,2.31
2023-05-24T04:34:58.340Z,2.32
2023-05-24T04:35:58.367Z,2.61
2023-05-24T04:36:58.397Z,3.18
2023-05-24T04:37:58.455Z,3.24
2023-05-24T04:38:58.457Z,3.22
2023-05-24T04:39:58.524Z,4.27
2023-05-24T04:40:58.546Z,4.84
2023-05-24T04:41:58.568Z,5.88
2023-05-24T04:42:58.619Z,7.44
2023-05-24T04:43:58.676Z,9.80
2023-05-24T04:44:58.725Z,9.75
2023-05-24T04:45:58.758Z,9.20
2023-05-24T04:46:58.889Z,9.97
2023-05-24T04:47:58.899Z,9.77
2023-05-24T04:48:58.838Z,10.52
2023-05-24T04:49:59.216Z,11.68
2023-05-24T04:50:58.895Z,11.21
2023-05-24T04:51:58.905Z,15.82
2023-05-24T04:52:58.928Z,23.61
2023-05-24T04:53:58.950Z,28.09
2023-05-24T04:54:59.214Z,34.22
2023-05-24T04:55:59.011Z,30.98
2023-05-24T04:56:59.050Z,29.81
2023-05-24T04:57:59.076Z,34.77
2023-05-24T04:58:59.080Z,42.77
2023-05-24T04:59:59.107Z,52.61
2023-05-24T05:00:59.117Z,54.57
2023-05-24T05:01:59.212Z,68.63
2023-05-24T05:02:59.318Z,96.51
2023-05-24T05:03:59.237Z,101.65
2023-05-24T05:04:59.235Z,93.95
2023-05-24T05:05:59.273Z,91.16
2023-05-24T05:06:59.267Z,76.54
2023-05-24T05:07:59.281Z,71.81
2023-05-24T05:08:59.303Z,58.98
2023-05-24T05:09:59.341Z,45.97
2023-05-24T05:10:59.366Z,50.00
2023-05-24T05:11:59.415Z,42.11
2023-05-24T05:12:59.457Z,44.81
2023-05-24T05:13:59.474Z,44.60
2023-05-24T05:14:59.498Z,49.21
2023-05-24T05:15:59.569Z,46.72
2023-05-24T05:16:59.573Z,45.82
2023-05-24T05:17:59.620Z,55.65
2023-05-24T05:18:59.609Z,45.53
2023-05-24T05:19:59.682Z,42.16
2023-05-24T05:20:59.668Z,33.33
2023-05-24T05:21:59.694Z,34.18
2023-05-24T05:22:59.742Z,41.13
2023-05-24T05:23:59.801Z,48.65
2023-05-24T05:24:59.933Z,58.25
2023-05-24T05:25:59.859Z,63.78
2023-05-24T05:26:59.865Z,75.06
2023-05-24T05:27:59.882Z,128.82
2023-05-24T05:28:59.925Z,186.15
2023-05-24T05:29:59.990Z,238.19
2023-05-24T05:30:59.989Z,215.91
2023-05-24T05:32:00.752Z,139.88
2023-05-24T05:33:00.198Z,108.71
2023-05-24T05:34:00.741Z,77.85
2023-05-24T05:35:00.247Z,56.22
2023-05-24T05:36:00.262Z,228.86
2023-05-24T05:37:00.171Z,338.35
2023-05-24T05:38:00.203Z,153.94
2023-05-24T05:39:00.193Z,58.82
2023-05-24T05:40:00.259Z,39.59
2023-05-24T05:41:00.270Z,33.38
2023-05-24T05:42:00.299Z,31.70
2023-05-24T05:43:00.318Z,36.39
2023-05-24T05:44:00.374Z,40.46
2023-05-24T05:45:00.370Z,39.47
2023-05-24T05:46:00.488Z,41.33
2023-05-24T05:47:00.424Z,44.01
2023-05-24T05:48:00.488Z,38.86
2023-05-24T05:49:00.499Z,34.45
2023-05-24T05:50:00.541Z,35.52
2023-05-24T05:51:01.291Z,32.90
2023-05-24T05:52:00.663Z,25.05
2023-05-24T05:53:00.722Z,23.95
2023-05-24T05:54:00.683Z,22.49
2023-05-24T05:55:00.858Z,24.66
2023-05-24T05:56:00.763Z,23.50
2023-05-24T05:57:01.720Z,29.50
2023-05-24T05:58:00.822Z,56.16
2023-05-24T05:59:01.853Z,71.36
2023-05-24T06:00:00.967Z,56.59
2023-05-24T06:01:00.977Z,53.70
2023-05-24T06:02:00.935Z,50.06
2023-05-24T06:03:01.028Z,37.25
2023-05-24T06:04:01.067Z,29.61
2023-05-24T06:05:00.988Z,28.95
2023-05-24T06:06:01.173Z,31.68
2023-05-24T06:07:01.094Z,33.32
2023-05-24T06:08:01.755Z,28.29
2023-05-24T06:09:01.768Z,31.10
2023-05-24T06:10:01.118Z,37.67
2023-05-24T06:11:01.209Z,36.02
2023-05-24T06:12:01.212Z,35.89
2023-05-24T06:13:01.246Z,35.71
2023-05-24T06:14:01.163Z,34.98
2023-05-24T06:15:01.173Z,40.31
2023-05-24T06:16:01.212Z,60.91
2023-05-24T06:17:01.194Z,62.67
2023-05-24T06:18:01.299Z,58.85
2023-05-24T06:19:06.277Z,45.12
2023-05-24T06:20:01.358Z,45.24
2023-05-24T06:21:01.273Z,42.85
2023-05-24T06:22:01.341Z,39.32
2023-05-24T06:23:01.424Z,36.03
2023-05-24T06:24:01.458Z,36.19
2023-05-24T06:25:03.309Z,46.20
2023-05-24T06:26:03.446Z,36.41
2023-05-24T06:27:02.792Z,37.06
2023-05-24T06:28:02.459Z,39.70
2023-05-24T06:29:02.579Z,39.72
2023-05-24T06:30:01.443Z,47.57
2023-05-24T06:31:01.357Z,46.31
2023-05-24T06:32:01.523Z,37.20
2023-05-24T06:33:01.446Z,39.99
2023-05-24T06:34:04.429Z,41.18
2023-05-24T06:35:01.297Z,41.79
2023-05-24T06:36:02.273Z,45.34
2023-05-24T06:37:02.245Z,51.32
2023-05-24T06:38:01.317Z,66.58
2023-05-24T06:39:01.328Z,99.89
2023-05-24T06:40:01.420Z,125.36
2023-05-24T06:41:01.285Z,114.39
2023-05-24T06:42:01.324Z,94.04
2023-05-24T06:43:01.272Z,61.66
2023-05-24T06:44:01.279Z,54.32
2023-05-24T06:45:01.791Z,59.38
2023-05-24T06:46:01.326Z,47.79
2023-05-24T06:47:01.317Z,40.13
2023-05-24T06:48:01.323Z,36.95
2023-05-24T06:49:01.385Z,26.35
2023-05-24T06:50:01.228Z,23.60
2023-05-24T06:51:01.284Z,23.99
2023-05-24T06:52:01.299Z,20.69
2023-05-24T06:53:01.827Z,17.34
2023-05-24T06:54:01.178Z,16.08
2023-05-24T06:55:01.154Z,18.00
2023-05-24T06:56:01.228Z,19.56
2023-05-24T06:57:01.218Z,25.62
2023-05-24T06:58:01.146Z,17.49
2023-05-24T06:59:01.189Z,13.33
2023-05-24T07:00:01.129Z,12.40
2023-05-24T07:01:01.293Z,22.97
2023-05-24T07:02:03.651Z,46.17
2023-05-24T07:03:01.138Z,61.61
2023-05-24T07:04:01.179Z,88.96
2023-05-24T07:05:01.180Z,140.00
2023-05-24T07:06:01.117Z,151.50
2023-05-24T07:07:01.071Z,100.33
2023-05-24T07:08:01.092Z,59.76
2023-05-24T07:09:01.109Z,43.46
2023-05-24T07:10:01.084Z,31.48
2023-05-24T07:11:01.091Z,32.62
2023-05-24T07:12:01.053Z,40.16
2023-05-24T07:13:01.060Z,47.96
2023-05-24T07:14:01.048Z,35.07
2023-05-24T07:15:01.103Z,27.14
2023-05-24T07:16:01.051Z,23.53
2023-05-24T07:17:01.137Z,21.84
2023-05-24T07:18:01.050Z,22.68
2023-05-24T07:19:03.891Z,14.15
2023-05-24T07:20:01.110Z,12.98
2023-05-24T07:21:01.114Z,14.78
2023-05-24T07:22:01.086Z,19.83
2023-05-24T07:23:00.960Z,24.91
2023-05-24T07:24:01.038Z,31.29
2023-05-24T07:25:00.994Z,23.27
2023-05-24T07:26:00.951Z,14.75
2023-05-24T07:27:00.988Z,16.29
2023-05-24T07:28:00.929Z,22.13
2023-05-24T07:29:00.948Z,28.16
2023-05-24T07:30:00.937Z,41.21
2023-05-24T07:31:01.001Z,44.58
2023-05-24T07:32:01.033Z,38.46
2023-05-24T07:33:01.838Z,39.06
2023-05-24T07:34:00.966Z,38.14
2023-05-24T07:35:00.990Z,36.25
2023-05-24T07:36:00.873Z,19.10
2023-05-24T07:37:00.986Z,13.05
2023-05-24T07:38:00.865Z,12.40
2023-05-24T07:39:01.882Z,11.19
2023-05-24T07:40:00.869Z,9.63
2023-05-24T07:41:00.869Z,5.02
2023-05-24T07:42:00.861Z,3.56
2023-05-24T07:43:00.882Z,3.15
2023-05-24T07:44:00.822Z,2.47
2023-05-24T07:45:00.889Z,2.32
2023-05-24T07:46:00.829Z,1.93
2023-05-24T07:47:00.809Z,1.84
2023-05-24T07:48:00.848Z,1.70
2023-05-24T07:49:00.828Z,1.65
2023-05-24T07:50:00.787Z,1.59
2023-05-24T07:51:00.848Z,1.30
2023-05-24T07:52:00.828Z,1.57
2023-05-24T07:53:00.786Z,0.92
2023-05-24T07:54:00.765Z,0.99
2023-05-24T07:55:00.776Z,0.85
2023-05-24T07:56:00.742Z,1.11
2023-05-24T07:57:00.767Z,1.48
2023-05-24T07:58:00.816Z,1.87
2023-05-24T07:59:00.794Z,2.07
2023-05-24T08:00:00.816Z,2.08
2023-05-24T08:01:00.729Z,1.99
2023-05-24T08:02:00.706Z,1.66
2023-05-24T08:03:00.805Z,1.92
2023-05-24T08:04:00.864Z,1.95
2023-05-24T08:05:00.713Z,1.62
2023-05-24T08:06:00.675Z,1.55
2023-05-24T08:07:00.736Z,1.73
2023-05-24T08:08:00.662Z,2.20
2023-05-24T08:09:00.823Z,3.73
2023-05-24T08:10:00.653Z,5.13
2023-05-24T08:11:00.763Z,4.53
2023-05-24T08:12:01.804Z,6.12
2023-05-24T08:13:00.652Z,11.34
2023-05-24T08:14:00.663Z,13.61
2023-05-24T08:15:00.627Z,15.44
2023-05-24T08:16:00.734Z,16.26
2023-05-24T08:17:00.722Z,15.95
2023-05-24T08:18:00.758Z,9.77
2023-05-24T08:19:00.868Z,11.19
2023-05-24T08:20:00.870Z,6.65
2023-05-24T08:21:00.793Z,5.56
2023-05-24T08:22:00.882Z,3.10
2023-05-24T08:23:00.848Z,4.43
2023-05-24T08:24:00.851Z,9.42
2023-05-24T08:25:00.885Z,9.84
2023-05-24T08:26:00.887Z,8.38
2023-05-24T08:27:00.969Z,6.31
2023-05-24T08:28:01.194Z,14.24
2023-05-24T08:29:00.925Z,19.84
2023-05-24T08:30:00.918Z,25.57
2023-05-24T08:31:01.862Z,29.81
2023-05-24T08:32:01.407Z,33.82
2023-05-24T08:33:01.065Z,31.80
2023-05-24T08:34:00.995Z,29.44
2023-05-24T08:35:14.787Z,24.80
2023-05-24T08:36:02.006Z,18.63
2023-05-24T08:37:01.089Z,18.10
2023-05-24T08:38:01.018Z,11.96
2023-05-24T08:39:01.021Z,6.62
2023-05-24T08:40:01.038Z,5.19
2023-05-24T08:41:01.378Z,4.18
2023-05-24T08:43:00.955Z,2.97
2023-05-24T08:44:01.016Z,1.89
2023-05-24T08:45:00.988Z,1.34
2023-05-24T08:46:01.359Z,0.98
2023-05-24T08:47:01.844Z,0.84
2023-05-24T08:48:01.050Z,0.74
2023-05-24T08:49:00.985Z,0.80
2023-05-24T08:50:00.926Z,0.67
2023-05-24T08:51:00.900Z,0.56
2023-05-24T08:52:01.322Z,0.97
2023-05-24T08:53:00.883Z,1.11
2023-05-24T08:54:00.978Z,0.68
2023-05-24T08:55:00.870Z,1.06
2023-05-24T08:56:01.352Z,1.42
2023-05-24T08:57:00.917Z,0.92
2023-05-24T08:58:00.939Z,0.70
2023-05-24T08:59:00.901Z,0.46
2023-05-24T09:00:00.970Z,0.80
2023-05-24T09:01:00.947Z,0.92
2023-05-24T09:02:00.937Z,1.34
2023-05-24T09:03:00.850Z,1.16
2023-05-24T09:04:00.855Z,2.22
2023-05-24T09:05:00.914Z,1.85
2023-05-24T09:06:00.944Z,2.14
2023-05-24T09:07:00.783Z,1.03
2023-05-24T09:08:00.802Z,0.66
2023-05-24T09:09:00.789Z,0.56
2023-05-24T09:10:00.782Z,1.08
2023-05-24T09:11:00.970Z,0.87
2023-05-24T09:12:00.776Z,0.59
2023-05-24T09:13:00.846Z,0.60
2023-05-24T09:14:00.764Z,0.49
2023-05-24T09:15:01.324Z,0.48
2023-05-24T09:16:00.843Z,0.51
2023-05-24T09:17:00.769Z,0.56
2023-05-24T09:18:00.790Z,0.50
2023-05-24T09:19:00.715Z,0.51
2023-05-24T09:20:00.829Z,0.41
2023-05-24T09:21:00.755Z,0.51
2023-05-24T09:22:00.787Z,0.59
2023-05-24T09:23:00.747Z,1.00
2023-05-24T09:24:00.698Z,1.36
2023-05-24T09:25:00.716Z,1.18
2023-05-24T09:26:00.748Z,1.07
2023-05-24T09:27:00.707Z,0.55
2023-05-24T09:28:00.677Z,0.51
2023-05-24T09:29:00.678Z,0.89
2023-05-24T09:30:00.649Z,0.47
2023-05-24T09:31:00.705Z,0.41
2023-05-24T09:32:00.710Z,0.42
2023-05-24T09:33:00.841Z,0.50
2023-05-24T09:34:00.718Z,0.54
2023-05-24T09:35:00.738Z,0.59
2023-05-24T09:36:00.833Z,0.62
2023-05-24T09:37:01.373Z,0.86
2023-05-24T09:38:00.958Z,1.11
2023-05-24T09:39:01.242Z,0.89
2023-05-24T09:40:01.000Z,0.60
2023-05-24T09:41:01.048Z,0.69
2023-05-24T09:42:01.066Z,0.71
2023-05-24T09:43:01.231Z,0.83
2023-05-24T09:44:01.338Z,0.57
2023-05-24T09:45:01.231Z,0.56
2023-05-24T09:46:01.319Z,0.53
2023-05-24T09:47:01.610Z,0.43
2023-05-24T09:48:01.461Z,0.37
2023-05-24T09:49:01.378Z,0.40
2023-05-24T09:50:02.351Z,0.64
2023-05-24T09:51:01.504Z,1.18
2023-05-24T09:52:01.962Z,0.96
2023-05-24T09:53:01.688Z,0.58
2023-05-24T09:54:01.710Z,0.45
2023-05-24T09:55:01.738Z,0.49
2023-05-24T09:56:01.967Z,0.62
2023-05-24T09:57:03.516Z,0.71
2023-05-24T09:58:01.835Z,1.27
2023-05-24T09:59:01.844Z,2.78
2023-05-24T10:00:01.901Z,2.23
2023-05-24T10:01:01.868Z,2.43
2023-05-24T10:02:01.894Z,2.58
2023-05-24T10:03:01.874Z,1.76
2023-05-24T10:04:01.948Z,1.35
2023-05-24T10:05:01.830Z,1.97
2023-05-24T10:06:01.777Z,2.42
2023-05-24T10:07:01.874Z,1.79
2023-05-24T10:08:01.767Z,1.69
2023-05-24T10:09:01.808Z,2.71
2023-05-24T10:10:01.816Z,5.82
2023-05-24T10:11:01.792Z,4.12
2023-05-24T10:12:01.749Z,3.40
2023-05-24T10:13:01.755Z,3.81
2023-05-24T10:14:01.734Z,5.76
2023-05-24T10:15:01.803Z,5.43
2023-05-24T10:16:01.707Z,4.20
2023-05-24T10:17:01.861Z,3.35
2023-05-24T10:18:01.884Z,3.12
2023-05-24T10:19:01.677Z,2.51
2023-05-24T10:20:01.773Z,1.99
2023-05-24T10:21:02.002Z,2.09
2023-05-24T10:22:01.669Z,2.41
2023-05-24T10:23:02.160Z,3.25
2023-05-24T10:24:01.655Z,2.82
2023-05-24T10:25:01.657Z,2.71
2023-05-24T10:26:01.650Z,3.00
2023-05-24T10:27:01.652Z,4.75
2023-05-24T10:28:01.667Z,3.91
2023-05-24T10:29:01.645Z,3.34
2023-05-24T10:30:01.682Z,4.11
2023-05-24T10:31:01.793Z,2.56
2023-05-24T10:32:02.375Z,2.63
2023-05-24T10:33:01.687Z,2.73
2023-05-24T10:34:07.580Z,3.16
2023-05-24T10:35:02.604Z,3.18
2023-05-24T10:36:01.571Z,3.34
2023-05-24T10:37:01.892Z,3.37
2023-05-24T10:38:01.564Z,3.41
2023-05-24T10:39:01.597Z,3.19
2023-05-24T10:40:01.524Z,2.85
2023-05-24T10:41:01.684Z,3.44
2023-05-24T10:42:01.532Z,5.78
2023-05-24T10:43:01.520Z,8.42
2023-05-24T10:44:09.883Z,8.94
2023-05-24T10:45:02.516Z,9.03
2023-05-24T10:46:01.613Z,9.52
2023-05-24T10:47:01.479Z,8.49
2023-05-24T10:48:01.529Z,6.43
2023-05-24T10:49:01.525Z,5.52
2023-05-24T10:50:01.484Z,5.76
2023-05-24T10:51:01.446Z,7.18
2023-05-24T10:52:01.447Z,6.30
2023-05-24T10:53:01.448Z,5.75
2023-05-24T10:54:01.562Z,5.22
2023-05-24T10:55:04.401Z,6.18
2023-05-24T10:56:01.458Z,7.40
2023-05-24T10:57:01.421Z,10.20
2023-05-24T10:58:02.339Z,11.42
2023-05-24T10:59:01.400Z,11.96
2023-05-24T11:00:01.430Z,9.26
2023-05-24T11:01:01.394Z,8.25
2023-05-24T11:02:01.454Z,10.46
2023-05-24T11:03:01.579Z,14.47
2023-05-24T11:04:01.564Z,17.80
2023-05-24T11:05:01.394Z,10.46
2023-05-24T11:06:01.444Z,11.52
2023-05-24T11:07:01.891Z,11.03
2023-05-24T11:08:01.346Z,8.42
2023-05-24T11:09:01.349Z,7.49
2023-05-24T11:10:01.369Z,5.55
2023-05-24T11:11:11.505Z,4.31
2023-05-24T11:12:02.857Z,4.35
2023-05-24T11:13:01.541Z,4.71
2023-05-24T11:14:01.340Z,4.80
2023-05-24T11:15:01.361Z,5.66
2023-05-24T11:16:01.306Z,6.29
2023-05-24T11:17:01.317Z,5.53
2023-05-24T11:18:01.387Z,7.35
2023-05-24T11:19:01.284Z,5.51
2023-05-24T11:20:01.412Z,4.77
2023-05-24T11:21:01.241Z,4.42
2023-05-24T11:41:48.163Z,0.50
2023-05-24T11:42:48.129Z,0.50
2023-05-24T11:43:48.128Z,0.50
2023-05-24T11:44:48.120Z,0.50
2023-05-24T11:45:48.157Z,0.50
2023-05-24T11:46:48.126Z,0.42
2023-05-24T11:47:48.147Z,0.48
2023-05-24T11:48:48.147Z,0.50
2023-05-24T11:49:48.096Z,0.72
2023-05-24T11:50:49.881Z,1.44
2023-05-24T11:53:07.500Z,0.50
2023-05-24T11:54:07.507Z,0.50
2023-05-24T11:55:07.469Z,0.50
2023-05-24T11:56:07.458Z,0.50
2023-05-24T11:57:07.453Z,0.50
2023-05-24T11:58:07.453Z,0.69
2023-05-24T11:59:07.431Z,0.86
2023-05-24T12:00:07.464Z,0.62
2023-05-24T12:01:07.494Z,0.74
2023-05-24T12:02:07.520Z,0.64
2023-05-24T12:03:07.620Z,0.44
2023-05-24T12:04:07.645Z,0.34
2023-05-24T12:05:07.451Z,0.34
2023-05-24T12:06:07.404Z,0.34
2023-05-24T12:07:07.408Z,0.34
2023-05-24T12:08:08.370Z,0.34
2023-05-24T12:09:07.368Z,0.34
2023-05-24T12:10:07.378Z,0.47
2023-05-24T12:11:07.446Z,0.61
2023-05-24T12:12:07.415Z,0.78
2023-05-24T12:13:07.421Z,0.87
2023-05-24T12:14:07.537Z,1.20
2023-05-24T12:15:07.615Z,1.30
2023-05-24T12:16:08.319Z,1.54
2023-05-24T12:17:07.537Z,1.54
2023-05-24T12:18:07.596Z,1.36
2023-05-24T12:19:16.996Z,1.28
2023-05-24T12:20:08.683Z,1.29
2023-05-24T12:21:07.597Z,1.31
2023-05-24T12:22:07.961Z,1.52
2023-05-24T12:23:07.540Z,2.67
2023-05-24T12:24:07.564Z,3.86
2023-05-24T12:25:07.642Z,3.41
2023-05-24T12:26:07.525Z,2.12
2023-05-24T12:27:08.226Z,2.26
2023-05-24T12:28:07.541Z,3.72
2023-05-24T12:29:07.501Z,3.57
2023-05-24T12:30:07.526Z,4.38
2023-05-24T12:31:07.520Z,6.90
2023-05-24T12:32:07.478Z,11.83
2023-05-24T12:33:07.574Z,17.37
2023-05-24T12:34:07.491Z,26.06
2023-05-24T12:35:07.516Z,65.72
2023-05-24T12:36:07.583Z,86.09
2023-05-24T12:37:07.627Z,106.30
2023-05-24T12:38:07.667Z,78.78
2023-05-24T12:39:07.707Z,69.03
2023-05-24T12:40:07.866Z,47.97
2023-05-24T12:41:13.371Z,55.01
2023-05-24T12:42:08.865Z,55.24
2023-05-24T12:43:07.780Z,49.43
2023-05-24T12:44:07.831Z,42.42
2023-05-24T12:45:07.843Z,30.79
2023-05-24T12:46:07.793Z,24.10
2023-05-24T12:47:08.155Z,27.08
2023-05-24T12:48:07.804Z,28.07
2023-05-24T12:49:07.744Z,29.54
2023-05-24T12:50:07.750Z,30.47
2023-05-24T12:51:07.809Z,25.10
2023-05-24T12:52:07.869Z,27.04
2023-05-24T12:53:07.905Z,21.51
2023-05-24T12:54:07.981Z,20.37
2023-05-24T12:55:07.992Z,22.95
2023-05-24T12:56:08.044Z,10.30
2023-05-24T12:57:08.095Z,7.93
2023-05-24T12:58:08.101Z,6.86
2023-05-24T12:59:08.069Z,7.40
2023-05-24T13:00:08.081Z,6.01
2023-05-24T13:01:08.083Z,4.83
2023-05-24T13:02:08.055Z,4.76
2023-05-24T13:03:08.159Z,4.37
2023-05-24T13:04:08.187Z,4.63
2023-05-24T13:05:08.274Z,3.08
2023-05-24T13:06:08.109Z,2.77
2023-05-24T13:07:08.276Z,3.10
2023-05-24T13:08:08.271Z,3.27
2023-05-24T13:09:08.203Z,2.41
2023-05-24T13:10:08.237Z,2.32
2023-05-24T13:11:08.233Z,2.25
2023-05-24T13:12:08.286Z,2.35
2023-05-24T13:13:08.306Z,6.52
2023-05-24T13:14:08.365Z,19.45
2023-05-24T13:15:08.342Z,23.56
2023-05-24T13:16:08.348Z,20.49
2023-05-24T13:17:08.385Z,11.98
2023-05-24T13:18:08.504Z,5.60
2023-05-24T13:19:08.406Z,3.16
2023-05-24T13:20:08.477Z,2.88
2023-05-24T13:21:10.624Z,2.81
2023-05-24T13:22:08.492Z,3.47
2023-05-24T13:23:08.468Z,4.51
2023-05-24T13:24:08.460Z,4.14
2023-05-24T13:25:08.465Z,3.42
2023-05-24T13:26:08.454Z,3.83
2023-05-24T13:27:08.448Z,3.12
2023-05-24T13:28:08.414Z,2.80
2023-05-24T13:29:32.382Z,1.93
2023-05-24T13:30:09.483Z,1.83
2023-05-24T13:31:08.488Z,1.41
2023-05-24T13:32:08.432Z,1.30
2023-05-24T13:33:08.464Z,1.08
2023-05-24T13:34:08.380Z,1.36
2023-05-24T13:35:08.805Z,1.21
2023-05-24T13:36:08.377Z,1.38
2023-05-24T13:37:08.361Z,1.77
2023-05-24T13:38:08.362Z,2.38
2023-05-24T13:40:08.368Z,2.37
2023-05-24T13:41:08.350Z,2.14
2023-05-24T13:42:08.361Z,2.16
2023-05-24T13:43:08.317Z,1.81
2023-05-24T13:44:08.367Z,1.11
2023-05-24T13:45:08.327Z,0.70
2023-05-24T13:46:09.483Z,0.84
2023-05-24T13:47:08.361Z,1.09
2023-05-24T13:48:08.365Z,1.08
2023-05-24T13:49:08.324Z,0.97
2023-05-24T13:50:08.303Z,0.95
2023-05-24T13:51:08.277Z,1.15
2023-05-24T13:52:08.287Z,1.33